createdAt,value
2023-03-27T00:00:16.840Z,19.38
2023-03-27T00:02:46.972Z,21.45
2023-03-27T00:05:15.057Z,18.73
2023-03-27T00:07:42.973Z,17.45
2023-03-27T00:10:11.059Z,18.95
2023-03-27T00:12:39.882Z,14.90
2023-03-27T00:15:08.273Z,15.68
2023-03-27T00:17:37.044Z,15.68
2023-03-27T00:20:06.111Z,16.00
2023-03-27T00:22:33.825Z,17.88
2023-03-27T00:25:01.691Z,18.10
2023-03-27T00:27:30.164Z,13.90
2023-03-27T00:29:57.841Z,16.33
2023-03-27T00:32:25.866Z,16.45
2023-03-27T00:34:53.657Z,16.75
2023-03-27T00:37:21.811Z,16.13
2023-03-27T00:39:50.536Z,14.07
2023-03-27T00:42:23.041Z,15.90
2023-03-27T00:44:51.839Z,15.70
2023-03-27T00:47:31.053Z,18.73
2023-03-27T00:50:01.306Z,18.38
2023-03-27T00:52:31.512Z,19.75
2023-03-27T00:55:01.746Z,18.20
2023-03-27T00:57:31.456Z,20.65
2023-03-27T01:00:01.139Z,22.02
2023-03-27T01:02:29.142Z,20.35
2023-03-27T01:04:57.088Z,19.15
2023-03-27T01:07:25.454Z,17.60
2023-03-27T01:09:53.807Z,18.58
2023-03-27T01:12:30.842Z,17.52
2023-03-27T01:15:17.532Z,16.83
2023-03-27T01:18:21.004Z,17.13
2023-03-27T01:21:26.214Z,16.23
2023-03-27T01:24:24.689Z,18.83
2023-03-27T01:27:06.383Z,17.45
2023-03-27T01:29:47.047Z,21.73
2023-03-27T01:32:41.818Z,16.90
2023-03-27T01:35:37.305Z,21.23
2023-03-27T01:38:29.573Z,17.77
2023-03-27T01:41:25.603Z,17.42
2023-03-27T01:43:56.181Z,17.52
2023-03-27T01:46:53.240Z,20.35
2023-03-27T01:50:00.789Z,20.08
2023-03-27T01:52:32.038Z,19.58
2023-03-27T01:55:05.219Z,18.00
2023-03-27T01:57:48.859Z,17.65
2023-03-27T02:00:22.097Z,19.60
2023-03-27T02:03:14.593Z,22.37
2023-03-27T02:05:51.659Z,21.20
2023-03-27T02:08:27.886Z,21.13
2023-03-27T02:11:04.669Z,19.88
2023-03-27T02:13:41.101Z,16.92
2023-03-27T02:16:12.483Z,18.73
2023-03-27T02:18:47.685Z,20.10
2023-03-27T02:21:16.490Z,19.85
2023-03-27T02:23:44.966Z,22.15
2023-03-27T02:26:14.061Z,17.40
2023-03-27T02:28:54.408Z,21.50
2023-03-27T02:31:41.270Z,21.20
2023-03-27T02:34:26.331Z,18.90
2023-03-27T02:37:19.891Z,21.77
2023-03-27T02:40:27.718Z,22.42
2023-03-27T02:43:19.928Z,25.48
2023-03-27T02:46:09.179Z,28.80
2023-03-27T02:48:40.909Z,31.48
2023-03-27T02:51:16.584Z,28.30
2023-03-27T02:54:12.774Z,29.10
2023-03-27T02:56:46.459Z,32.08
2023-03-27T02:59:36.838Z,32.60
2023-03-27T03:04:57.256Z,32.65
2023-03-27T03:07:38.308Z,32.17
2023-03-27T03:10:09.716Z,37.63
2023-03-27T03:12:38.025Z,36.38
2023-03-27T03:15:08.119Z,35.70
2023-03-27T03:17:37.501Z,35.50
2023-03-27T03:20:07.467Z,38.22
2023-03-27T03:22:36.423Z,38.60
2023-03-27T03:25:04.866Z,36.78
2023-03-27T03:27:34.197Z,45.17
2023-03-27T03:30:16.577Z,34.53
2023-03-27T03:33:00.234Z,34.47
2023-03-27T03:35:28.374Z,34.80
2023-03-27T03:37:59.491Z,38.33
2023-03-27T03:40:28.934Z,36.25
2023-03-27T03:42:59.049Z,35.53
2023-03-27T03:45:29.725Z,37.50
2023-03-27T03:47:57.893Z,40.88
2023-03-27T03:50:25.873Z,40.75
2023-03-27T03:52:53.747Z,35.88
2023-03-27T03:55:21.405Z,44.95
2023-03-27T03:57:50.267Z,44.20
2023-03-27T04:00:26.916Z,41.95
2023-03-27T04:02:57.257Z,44.45
2023-03-27T04:05:26.149Z,49.83
2023-03-27T04:07:59.496Z,36.60
2023-03-27T04:10:27.904Z,41.85
2023-03-27T04:12:58.607Z,33.65
2023-03-27T04:15:33.291Z,38.85
2023-03-27T04:18:20.294Z,28.80
2023-03-27T04:20:54.507Z,32.20
2023-03-27T04:23:30.510Z,36.05
2023-03-27T04:26:00.442Z,29.42
2023-03-27T04:28:38.495Z,31.95
2023-03-27T04:31:26.368Z,26.10
2023-03-27T04:34:14.438Z,25.88
2023-03-27T04:37:03.674Z,26.08
2023-03-27T04:39:37.310Z,27.52
2023-03-27T04:42:05.743Z,25.70
2023-03-27T04:44:35.105Z,27.77
2023-03-27T04:47:03.861Z,27.40
2023-03-27T04:49:38.708Z,30.45
2023-03-27T04:52:18.102Z,26.33
2023-03-27T04:54:46.817Z,32.03
2023-03-27T04:57:16.144Z,29.80
2023-03-27T04:59:44.195Z,37.63
2023-03-27T05:02:33.799Z,37.63
2023-03-27T05:05:09.176Z,45.58
2023-03-27T05:07:38.078Z,45.58
2023-03-27T05:10:08.728Z,32.13
2023-03-27T05:12:43.008Z,34.33
2023-03-27T05:15:15.071Z,35.33
2023-03-27T05:17:47.256Z,29.10
2023-03-27T05:20:17.081Z,30.17
2023-03-27T05:22:45.987Z,25.55
2023-03-27T05:25:23.391Z,28.88
2023-03-27T05:27:52.391Z,25.60
2023-03-27T05:30:22.704Z,26.58
2023-03-27T05:32:59.553Z,28.30
2023-03-27T05:35:30.287Z,23.00
2023-03-27T05:37:59.604Z,35.28
2023-03-27T05:40:34.378Z,32.42
2023-03-27T05:43:03.474Z,27.88
2023-03-27T05:45:33.399Z,34.00
2023-03-27T05:48:02.935Z,33.97
2023-03-27T05:50:35.482Z,26.35
2023-03-27T05:53:10.301Z,34.50
2023-03-27T05:55:49.797Z,28.38
2023-03-27T05:58:41.745Z,32.22
2023-03-27T06:01:11.257Z,30.98
2023-03-27T06:03:39.485Z,34.30
2023-03-27T06:06:15.494Z,32.97
2023-03-27T06:08:46.264Z,37.65
2023-03-27T06:11:17.738Z,37.83
2023-03-27T06:13:46.729Z,43.53
2023-03-27T06:16:26.128Z,45.78
2023-03-27T06:19:26.238Z,41.65
2023-03-27T06:21:54.065Z,46.45
2023-03-27T06:24:22.531Z,56.10
2023-03-27T06:26:51.116Z,50.17
2023-03-27T06:29:21.342Z,52.08
2023-03-27T06:31:51.791Z,51.65
2023-03-27T06:34:39.868Z,58.67
2023-03-27T06:37:37.092Z,53.05
2023-03-27T06:40:09.812Z,61.08
2023-03-27T06:42:41.172Z,55.80
2023-03-27T06:45:38.383Z,52.08
2023-03-27T06:48:37.837Z,52.58
2023-03-27T06:51:08.111Z,50.58
2023-03-27T06:53:38.057Z,56.30
2023-03-27T06:56:07.095Z,59.17
2023-03-27T06:58:54.685Z,50.00
2023-03-27T07:04:18.828Z,58.33
2023-03-27T07:06:54.504Z,47.72
2023-03-27T07:09:22.373Z,50.78
2023-03-27T07:12:00.430Z,41.35
2023-03-27T07:14:31.127Z,36.20
2023-03-27T07:16:59.393Z,43.75
2023-03-27T07:22:12.656Z,35.35
2023-03-27T07:24:41.614Z,32.38
2023-03-27T07:27:11.248Z,33.28
2023-03-27T07:29:39.354Z,27.35
2023-03-27T07:32:09.275Z,33.80
2023-03-27T07:34:43.486Z,33.00
2023-03-27T07:37:17.049Z,34.42
2023-03-27T07:40:06.996Z,29.42
2023-03-27T07:42:35.503Z,30.58
2023-03-27T07:45:06.678Z,29.13
2023-03-27T07:47:36.882Z,26.13
2023-03-27T07:50:10.450Z,27.20
2023-03-27T07:52:43.776Z,22.48
2023-03-27T07:55:16.163Z,20.25
2023-03-27T07:58:00.793Z,23.52
2023-03-27T08:00:36.090Z,18.27
2023-03-27T08:03:16.791Z,26.52
2023-03-27T08:05:56.727Z,20.17
2023-03-27T08:08:26.653Z,17.20
2023-03-27T08:10:59.352Z,19.83
2023-03-27T08:13:33.668Z,17.77
2023-03-27T08:16:05.620Z,20.75
2023-03-27T08:18:33.867Z,18.63
2023-03-27T08:21:03.928Z,19.55
2023-03-27T08:23:33.951Z,17.67
2023-03-27T08:26:20.999Z,17.20
2023-03-27T08:28:58.725Z,19.08
2023-03-27T08:31:31.477Z,24.35
2023-03-27T08:34:02.182Z,20.90
2023-03-27T08:36:42.780Z,17.15
2023-03-27T08:39:13.486Z,14.90
2023-03-27T08:41:58.235Z,16.30
2023-03-27T08:44:33.522Z,16.13
2023-03-27T08:47:36.163Z,13.50
2023-03-27T08:50:28.995Z,13.77
2023-03-27T08:53:14.799Z,15.63
2023-03-27T08:55:44.321Z,12.38
2023-03-27T08:58:33.740Z,16.65
2023-03-27T09:01:41.444Z,10.40
2023-03-27T09:04:29.270Z,19.55
2023-03-27T09:07:11.823Z,9.27
2023-03-27T09:10:15.437Z,16.27
2023-03-27T09:13:29.989Z,6.75
2023-03-27T09:16:04.349Z,6.38
2023-03-27T09:18:43.959Z,7.72
2023-03-27T09:21:19.825Z,8.27
2023-03-27T09:23:49.179Z,10.43
2023-03-27T09:26:36.876Z,9.15
2023-03-27T09:29:22.457Z,9.45
2023-03-27T09:31:59.102Z,13.75
2023-03-27T09:34:30.627Z,7.25
2023-03-27T09:36:59.343Z,8.50
2023-03-27T09:39:32.840Z,12.07
2023-03-27T09:42:20.292Z,9.82
2023-03-27T09:44:52.837Z,6.85
2023-03-27T09:49:58.065Z,12.18
2023-03-27T09:52:41.984Z,13.88
2023-03-27T09:55:31.804Z,18.20
2023-03-27T09:58:24.935Z,16.08
2023-03-27T10:01:16.215Z,6.65
2023-03-27T10:03:54.195Z,10.82
2023-03-27T10:06:44.765Z,8.48
2023-03-27T10:09:29.342Z,10.57
2023-03-27T10:12:08.155Z,8.70
2023-03-27T10:14:45.930Z,8.23
2023-03-27T10:17:38.170Z,6.65
2023-03-27T10:20:19.700Z,14.35
2023-03-27T10:23:01.625Z,11.93
2023-03-27T10:25:38.058Z,49.75
2023-03-27T10:28:36.338Z,9.40
2023-03-27T10:31:31.509Z,18.88
2023-03-27T10:34:29.451Z,18.98
2023-03-27T10:37:28.168Z,13.25
2023-03-27T10:40:36.617Z,8.38
2023-03-27T10:43:14.420Z,9.10
2023-03-27T10:45:48.192Z,17.27
2023-03-27T10:48:33.049Z,16.63
2023-03-27T10:51:05.845Z,15.90
2023-03-27T10:54:09.634Z,8.98
2023-03-27T10:57:08.827Z,14.70
2023-03-27T10:59:45.855Z,12.38
2023-03-27T11:02:33.240Z,12.98
2023-03-27T11:05:43.895Z,11.57
2023-03-27T11:08:43.035Z,10.88
2023-03-27T11:11:16.986Z,6.97
2023-03-27T11:13:48.940Z,14.10
2023-03-27T11:16:22.250Z,9.43
2023-03-27T11:19:41.268Z,14.25
2023-03-27T11:22:43.410Z,14.63
2023-03-27T11:25:51.750Z,12.75
2023-03-27T11:28:39.801Z,20.05
2023-03-27T11:31:25.959Z,13.35
2023-03-27T11:34:02.114Z,17.42
2023-03-27T11:36:35.177Z,15.95
2023-03-27T11:39:44.086Z,22.40
2023-03-27T11:42:19.553Z,16.30
2023-03-27T11:44:50.824Z,22.85
2023-03-27T11:47:55.927Z,12.10
2023-03-27T11:51:14.893Z,14.00
2023-03-27T11:54:00.160Z,15.05
2023-03-27T11:56:56.576Z,11.57
2023-03-27T11:59:57.257Z,15.25
2023-03-27T12:02:49.916Z,12.52
2023-03-27T12:05:57.477Z,12.00
2023-03-27T12:08:46.019Z,13.13
2023-03-27T12:11:14.374Z,19.30
2023-03-27T12:14:18.464Z,20.45
2023-03-27T12:17:02.624Z,15.55
2023-03-27T12:20:22.199Z,27.05
2023-03-27T12:23:08.422Z,9.90
2023-03-27T12:25:56.271Z,13.75
2023-03-27T12:29:23.859Z,18.60
2023-03-27T12:32:33.811Z,18.38
2023-03-27T12:35:22.436Z,16.10
2023-03-27T12:37:59.627Z,13.23
2023-03-27T12:40:48.999Z,16.05
2023-03-27T12:43:21.588Z,15.45
2023-03-27T12:46:13.203Z,13.77
2023-03-27T12:48:58.750Z,12.50
2023-03-27T12:52:04.407Z,9.23
2023-03-27T12:55:18.525Z,9.50
2023-03-27T12:58:03.159Z,10.25
2023-03-27T13:01:00.557Z,12.15
2023-03-27T13:04:19.862Z,18.05
2023-03-27T13:07:06.945Z,10.00
2023-03-27T13:10:13.426Z,8.30
2023-03-27T13:12:57.793Z,11.63
2023-03-27T13:15:43.585Z,8.32
2023-03-27T13:18:24.129Z,10.48
2023-03-27T13:21:07.654Z,13.15
2023-03-27T13:23:54.756Z,13.93
2023-03-27T13:26:46.749Z,22.92
2023-03-27T13:29:17.798Z,8.68
2023-03-27T13:31:49.434Z,8.25
2023-03-27T13:34:41.715Z,7.93
2023-03-27T13:37:15.004Z,10.73
2023-03-27T13:39:55.710Z,9.68
2023-03-27T13:42:36.015Z,12.20
2023-03-27T13:45:26.427Z,11.93
2023-03-27T13:48:48.572Z,16.33
2023-03-27T13:51:26.668Z,9.10
2023-03-27T13:54:34.122Z,5.20
2023-03-27T13:57:16.256Z,9.75
2023-03-27T14:00:10.429Z,13.07
2023-03-27T14:03:02.194Z,6.22
2023-03-27T14:05:56.476Z,14.85
2023-03-27T14:08:35.480Z,11.32
2023-03-27T14:11:34.689Z,6.90
2023-03-27T14:14:21.890Z,9.07
2023-03-27T14:16:52.012Z,6.18
2023-03-27T14:19:45.317Z,4.15
2023-03-27T14:22:24.167Z,5.50
2023-03-27T14:25:03.091Z,7.05
2023-03-27T14:27:46.886Z,15.85
2023-03-27T14:30:27.112Z,12.93
2023-03-27T14:33:20.085Z,6.93
2023-03-27T14:35:57.605Z,22.00
2023-03-27T14:38:26.261Z,5.50
2023-03-27T14:41:06.555Z,15.10
2023-03-27T14:43:52.271Z,13.10
2023-03-27T14:46:22.926Z,15.32
2023-03-27T14:48:58.071Z,7.53
2023-03-27T14:51:37.158Z,16.05
2023-03-27T14:57:19.323Z,11.73
2023-03-27T14:59:54.448Z,9.73
2023-03-27T15:02:26.756Z,12.98
2023-03-27T15:05:24.666Z,6.30
2023-03-27T15:08:00.545Z,8.68
2023-03-27T15:10:53.101Z,21.48
2023-03-27T15:13:47.996Z,9.68
2023-03-27T15:16:25.155Z,16.92
2023-03-27T15:19:15.513Z,10.68
2023-03-27T15:21:57.829Z,14.88
2023-03-27T15:24:33.538Z,14.68
2023-03-27T15:27:02.176Z,5.47
2023-03-27T15:29:42.815Z,13.55
2023-03-27T15:32:18.922Z,15.20
2023-03-27T15:34:58.172Z,16.70
2023-03-27T15:37:28.798Z,14.07
2023-03-27T15:40:22.598Z,6.28
2023-03-27T15:43:03.298Z,12.05
2023-03-27T15:45:41.578Z,12.98
2023-03-27T15:48:22.209Z,8.55
2023-03-27T15:51:07.721Z,7.80
2023-03-27T15:53:58.840Z,12.60
2023-03-27T15:56:39.551Z,9.73
2023-03-27T15:59:09.916Z,8.23
2023-03-27T16:01:52.436Z,9.18
2023-03-27T16:04:22.494Z,8.55
2023-03-27T16:06:52.513Z,7.57
2023-03-27T16:09:26.165Z,6.72
2023-03-27T16:11:54.917Z,8.00
2023-03-27T16:14:29.840Z,4.28
2023-03-27T16:17:12.549Z,4.55
2023-03-27T16:19:48.924Z,6.55
2023-03-27T16:22:31.430Z,6.57
2023-03-27T16:25:00.673Z,4.20
2023-03-27T16:27:40.005Z,7.55
2023-03-27T16:30:10.822Z,9.07
2023-03-27T16:32:38.559Z,8.23
2023-03-27T16:35:07.445Z,15.35
2023-03-27T16:37:35.482Z,6.35
2023-03-27T16:40:03.348Z,10.43
2023-03-27T16:42:31.454Z,7.68
2023-03-27T16:44:59.286Z,8.18
2023-03-27T16:47:27.017Z,12.80
2023-03-27T16:50:10.214Z,7.13
2023-03-27T16:52:38.540Z,7.00
2023-03-27T16:55:07.725Z,8.20
2023-03-27T16:57:36.553Z,6.95
2023-03-27T17:00:05.747Z,14.38
2023-03-27T17:02:35.092Z,6.95
2023-03-27T17:05:07.949Z,9.05
2023-03-27T17:07:36.233Z,7.43
2023-03-27T17:10:04.383Z,10.55
2023-03-27T17:12:32.475Z,6.60
2023-03-27T17:15:00.652Z,7.75
2023-03-27T17:17:31.973Z,8.52
2023-03-27T17:20:00.806Z,6.68
2023-03-27T17:22:30.132Z,11.02
2023-03-27T17:25:01.294Z,10.10
2023-03-27T17:27:29.277Z,7.53
2023-03-27T17:29:57.657Z,8.15
2023-03-27T17:32:26.946Z,11.18
2023-03-27T17:34:55.079Z,10.82
2023-03-27T17:37:23.520Z,10.55
2023-03-27T17:39:51.528Z,10.98
2023-03-27T17:42:19.169Z,11.73
2023-03-27T17:44:46.862Z,16.58
2023-03-27T17:47:14.636Z,10.02
2023-03-27T17:49:43.377Z,15.02
2023-03-27T17:52:12.505Z,20.88
2023-03-27T17:54:40.701Z,10.38
2023-03-27T17:57:08.428Z,11.00
2023-03-27T17:59:36.741Z,9.70
2023-03-27T18:02:04.762Z,13.68
2023-03-27T18:04:33.287Z,13.95
2023-03-27T18:07:01.339Z,11.93
2023-03-27T18:09:32.538Z,13.20
2023-03-27T18:12:00.289Z,15.15
2023-03-27T18:14:28.025Z,13.45
2023-03-27T18:16:55.743Z,16.92
2023-03-27T18:19:25.203Z,17.55
2023-03-27T18:21:52.813Z,18.50
2023-03-27T18:24:20.512Z,12.98
2023-03-27T18:26:52.418Z,14.15
2023-03-27T18:29:21.392Z,15.47
2023-03-27T18:31:49.242Z,12.65
2023-03-27T18:34:17.142Z,11.85
2023-03-27T18:36:50.751Z,13.10
2023-03-27T18:39:18.949Z,12.63
2023-03-27T18:41:46.892Z,15.80
2023-03-27T18:44:14.708Z,13.32
2023-03-27T18:46:42.361Z,12.95
2023-03-27T18:49:21.607Z,11.63
2023-03-27T18:51:51.798Z,15.05
2023-03-27T18:54:19.527Z,14.55
2023-03-27T18:56:48.865Z,15.35
2023-03-27T18:59:16.772Z,15.07
2023-03-27T19:01:44.489Z,22.52
2023-03-27T19:04:13.559Z,12.88
2023-03-27T19:06:42.951Z,58.67
2023-03-27T19:09:10.749Z,11.27
2023-03-27T19:11:38.448Z,14.77
2023-03-27T19:14:11.256Z,17.85
2023-03-27T19:16:58.061Z,12.15
2023-03-27T19:19:46.594Z,13.30
2023-03-27T19:22:14.654Z,23.27
2023-03-27T19:24:47.040Z,12.75
2023-03-27T19:27:23.638Z,12.07
2023-03-27T19:29:55.420Z,12.05
2023-03-27T19:32:24.559Z,13.63
2023-03-27T19:34:52.512Z,13.77
2023-03-27T19:37:20.382Z,12.60
2023-03-27T19:39:48.079Z,12.68
2023-03-27T19:42:15.973Z,15.95
2023-03-27T19:44:44.072Z,12.52
2023-03-27T19:47:11.779Z,10.10
2023-03-27T19:49:40.165Z,10.75
2023-03-27T19:52:17.054Z,13.30
2023-03-27T19:54:44.701Z,14.23
2023-03-27T19:57:12.500Z,17.75
2023-03-27T19:59:40.335Z,18.50
2023-03-27T20:02:09.746Z,16.38
2023-03-27T20:04:37.490Z,14.63
2023-03-27T20:07:07.159Z,13.93
2023-03-27T20:09:34.814Z,13.55
2023-03-27T20:12:04.231Z,68.93
2023-03-27T20:14:32.534Z,16.80
2023-03-27T20:17:00.422Z,19.70
2023-03-27T20:19:30.543Z,16.58
2023-03-27T20:22:00.974Z,21.20
2023-03-27T20:24:29.403Z,17.95
2023-03-27T20:27:00.290Z,23.92
2023-03-27T20:29:28.065Z,14.27
2023-03-27T20:31:55.885Z,24.67
2023-03-27T20:34:24.154Z,15.77
2023-03-27T20:36:55.023Z,14.93
2023-03-27T20:39:52.116Z,21.92
2023-03-27T20:42:23.237Z,16.75
2023-03-27T20:44:58.568Z,18.40
2023-03-27T20:47:26.483Z,14.80
2023-03-27T20:49:59.073Z,16.98
2023-03-27T20:52:26.821Z,15.95
2023-03-27T20:54:54.613Z,17.65
2023-03-27T20:57:22.718Z,20.60
2023-03-27T20:59:50.957Z,22.33
2023-03-27T21:02:19.644Z,20.33
2023-03-27T21:04:47.920Z,24.65
2023-03-27T21:07:16.205Z,22.65
2023-03-27T21:09:46.751Z,25.08
2023-03-27T21:12:14.412Z,23.25
2023-03-27T21:14:42.113Z,23.52
2023-03-27T21:17:23.541Z,22.42
2023-03-27T21:19:54.707Z,31.98
2023-03-27T21:22:22.460Z,29.75
2023-03-27T21:24:50.506Z,24.85
2023-03-27T21:27:18.284Z,26.35
2023-03-27T21:29:45.964Z,25.00
2023-03-27T21:32:13.729Z,30.90
2023-03-27T21:34:47.398Z,26.85
2023-03-27T21:37:15.174Z,29.88
2023-03-27T21:39:42.881Z,25.90
2023-03-27T21:42:10.638Z,29.42
2023-03-27T21:44:38.305Z,28.35
2023-03-27T21:47:05.996Z,66.18
2023-03-27T21:49:33.745Z,27.58
2023-03-27T21:52:01.374Z,32.25
2023-03-27T21:54:28.987Z,31.52
2023-03-27T21:56:56.777Z,31.92
2023-03-27T21:59:25.311Z,29.65
2023-03-27T22:01:53.826Z,33.97
2023-03-27T22:04:21.962Z,32.25
2023-03-27T22:06:49.892Z,29.63
2023-03-27T22:09:18.092Z,35.90
2023-03-27T22:11:45.928Z,28.98
2023-03-27T22:14:13.708Z,28.50
2023-03-27T22:16:41.560Z,33.00
2023-03-27T22:19:09.823Z,32.25
2023-03-27T22:21:37.697Z,29.30
2023-03-27T22:24:06.215Z,28.27
2023-03-27T22:26:37.472Z,25.95
2023-03-27T22:29:09.302Z,34.45
2023-03-27T22:31:37.157Z,30.23
2023-03-27T22:34:05.512Z,28.80
2023-03-27T22:36:33.722Z,38.25
2023-03-27T22:39:01.447Z,29.23
2023-03-27T22:41:29.171Z,29.88
2023-03-27T22:43:56.828Z,39.17
2023-03-27T22:46:24.588Z,29.35
2023-03-27T22:48:56.978Z,29.33
2023-03-27T22:51:25.483Z,28.30
2023-03-27T22:53:53.262Z,30.35
2023-03-27T22:56:21.285Z,25.42
2023-03-27T22:58:49.070Z,32.00
2023-03-27T23:01:16.835Z,26.17
2023-03-27T23:03:44.617Z,26.05
2023-03-27T23:06:19.678Z,28.63
2023-03-27T23:08:50.965Z,28.55
2023-03-27T23:11:19.485Z,27.38
2023-03-27T23:13:47.323Z,25.33
2023-03-27T23:16:15.093Z,29.40
2023-03-27T23:18:42.819Z,29.50
2023-03-27T23:21:12.560Z,31.23
2023-03-27T23:23:41.120Z,22.38
2023-03-27T23:26:09.571Z,24.35
2023-03-27T23:28:40.117Z,23.75
2023-03-27T23:31:11.498Z,27.63
2023-03-27T23:33:41.192Z,25.52
2023-03-27T23:36:11.610Z,28.33
2023-03-27T23:38:39.956Z,24.08
2023-03-27T23:41:08.642Z,24.17
2023-03-27T23:43:55.101Z,31.83
2023-03-27T23:46:22.829Z,30.80
2023-03-27T23:48:50.558Z,32.05
2023-03-27T23:51:18.252Z,29.33
2023-03-27T23:53:46.060Z,26.75
2023-03-27T23:56:13.781Z,27.85
2023-03-27T23:58:41.705Z,26.50
